sensor_id;sensor_type;location;lat;lon;timestamp;P1;durP1;ratioP1;P2;durP2;ratioP2
43048;SDS011;28673;44.412;11.918;2023-04-25T00:01:33;3.80;;;2.28;;
43048;SDS011;28673;44.412;11.918;2023-04-25T00:04:01;7.90;;;2.30;;
43048;SDS011;28673;44.412;11.918;2023-04-25T00:06:28;4.38;;;2.40;;
43048;SDS011;28673;44.412;11.918;2023-04-25T00:08:55;4.25;;;2.75;;
43048;SDS011;28673;44.412;11.918;2023-04-25T00:11:21;3.67;;;2.50;;
43048;SDS011;28673;44.412;11.918;2023-04-25T00:13:48;4.18;;;2.45;;
43048;SDS011;28673;44.412;11.918;2023-04-25T00:16:15;6.80;;;3.90;;
43048;SDS011;28673;44.412;11.918;2023-04-25T00:18:41;4.00;;;2.70;;
43048;SDS011;28673;44.412;11.918;2023-04-25T00:21:07;6.50;;;2.75;;
43048;SDS011;28673;44.412;11.918;2023-04-25T00:23:34;4.50;;;3.15;;
43048;SDS011;28673;44.412;11.918;2023-04-25T00:26:01;20.08;;;5.15;;
43048;SDS011;28673;44.412;11.918;2023-04-25T00:28:28;4.47;;;2.53;;
43048;SDS011;28673;44.412;11.918;2023-04-25T00:30:53;4.35;;;2.83;;
43048;SDS011;28673;44.412;11.918;2023-04-25T00:33:19;5.75;;;2.85;;
43048;SDS011;28673;44.412;11.918;2023-04-25T00:35:46;3.58;;;2.85;;
43048;SDS011;28673;44.412;11.918;2023-04-25T00:38:12;7.60;;;2.95;;
43048;SDS011;28673;44.412;11.918;2023-04-25T00:40:38;7.47;;;2.88;;
43048;SDS011;28673;44.412;11.918;2023-04-25T00:43:03;6.43;;;2.78;;
43048;SDS011;28673;44.412;11.918;2023-04-25T00:45:30;3.20;;;2.90;;
43048;SDS011;28673;44.412;11.918;2023-04-25T00:47:56;3.47;;;2.53;;
43048;SDS011;28673;44.412;11.918;2023-04-25T00:50:22;8.88;;;3.25;;
43048;SDS011;28673;44.412;11.918;2023-04-25T00:52:49;5.10;;;2.78;;
43048;SDS011;28673;44.412;11.918;2023-04-25T00:55:16;4.72;;;2.70;;
43048;SDS011;28673;44.412;11.918;2023-04-25T00:57:42;4.10;;;2.58;;
43048;SDS011;28673;44.412;11.918;2023-04-25T01:00:08;3.42;;;2.42;;
43048;SDS011;28673;44.412;11.918;2023-04-25T01:02:36;4.85;;;2.63;;
43048;SDS011;28673;44.412;11.918;2023-04-25T01:05:03;2.85;;;2.33;;
43048;SDS011;28673;44.412;11.918;2023-04-25T01:07:29;5.15;;;2.60;;
43048;SDS011;28673;44.412;11.918;2023-04-25T01:09:55;11.48;;;4.15;;
43048;SDS011;28673;44.412;11.918;2023-04-25T01:12:21;4.25;;;2.35;;
43048;SDS011;28673;44.412;11.918;2023-04-25T01:14:48;2.40;;;1.90;;
43048;SDS011;28673;44.412;11.918;2023-04-25T01:17:14;2.72;;;2.28;;
43048;SDS011;28673;44.412;11.918;2023-04-25T01:19:41;2.70;;;2.08;;
43048;SDS011;28673;44.412;11.918;2023-04-25T01:22:07;2.22;;;2.00;;
43048;SDS011;28673;44.412;11.918;2023-04-25T01:24:35;2.70;;;2.42;;
43048;SDS011;28673;44.412;11.918;2023-04-25T01:27:02;4.07;;;2.10;;
43048;SDS011;28673;44.412;11.918;2023-04-25T01:29:28;4.55;;;1.85;;
43048;SDS011;28673;44.412;11.918;2023-04-25T01:31:55;3.08;;;2.13;;
43048;SDS011;28673;44.412;11.918;2023-04-25T01:34:23;6.93;;;1.70;;
43048;SDS011;28673;44.412;11.918;2023-04-25T01:36:49;4.43;;;2.05;;
43048;SDS011;28673;44.412;11.918;2023-04-25T01:39:16;2.53;;;1.83;;
43048;SDS011;28673;44.412;11.918;2023-04-25T01:41:43;2.80;;;1.77;;
43048;SDS011;28673;44.412;11.918;2023-04-25T01:44:10;2.10;;;1.90;;
43048;SDS011;28673;44.412;11.918;2023-04-25T01:46:36;1.55;;;1.23;;
43048;SDS011;28673;44.412;11.918;2023-04-25T01:49:03;2.30;;;1.95;;
43048;SDS011;28673;44.412;11.918;2023-04-25T01:51:29;5.82;;;1.90;;
43048;SDS011;28673;44.412;11.918;2023-04-25T01:53:59;1.83;;;1.67;;
43048;SDS011;28673;44.412;11.918;2023-04-25T01:56:31;3.03;;;2.10;;
43048;SDS011;28673;44.412;11.918;2023-04-25T01:58:58;1.83;;;1.52;;
43048;SDS011;28673;44.412;11.918;2023-04-25T02:01:44;3.80;;;2.55;;
43048;SDS011;28673;44.412;11.918;2023-04-25T02:04:19;2.15;;;1.45;;
43048;SDS011;28673;44.412;11.918;2023-04-25T02:06:45;2.38;;;1.92;;
43048;SDS011;28673;44.412;11.918;2023-04-25T02:09:12;2.20;;;1.92;;
43048;SDS011;28673;44.412;11.918;2023-04-25T02:11:43;4.38;;;2.00;;
43048;SDS011;28673;44.412;11.918;2023-04-25T02:14:27;3.92;;;2.08;;
43048;SDS011;28673;44.412;11.918;2023-04-25T02:17:04;2.55;;;2.00;;
43048;SDS011;28673;44.412;11.918;2023-04-25T02:19:31;2.53;;;2.13;;
43048;SDS011;28673;44.412;11.918;2023-04-25T02:21:56;2.55;;;2.15;;
43048;SDS011;28673;44.412;11.918;2023-04-25T02:24:23;3.05;;;1.83;;
43048;SDS011;28673;44.412;11.918;2023-04-25T02:26:49;3.50;;;2.58;;
43048;SDS011;28673;44.412;11.918;2023-04-25T02:29:15;4.00;;;2.40;;
43048;SDS011;28673;44.412;11.918;2023-04-25T02:31:41;2.58;;;2.00;;
43048;SDS011;28673;44.412;11.918;2023-04-25T02:34:07;4.35;;;2.67;;
43048;SDS011;28673;44.412;11.918;2023-04-25T02:36:35;3.28;;;2.58;;
43048;SDS011;28673;44.412;11.918;2023-04-25T02:39:01;2.42;;;2.00;;
43048;SDS011;28673;44.412;11.918;2023-04-25T02:41:28;5.68;;;3.00;;
43048;SDS011;28673;44.412;11.918;2023-04-25T02:43:54;3.58;;;2.30;;
43048;SDS011;28673;44.412;11.918;2023-04-25T02:46:20;3.45;;;2.38;;
43048;SDS011;28673;44.412;11.918;2023-04-25T02:48:46;2.47;;;2.28;;
43048;SDS011;28673;44.412;11.918;2023-04-25T02:51:12;4.55;;;2.47;;
43048;SDS011;28673;44.412;11.918;2023-04-25T02:53:38;3.53;;;2.30;;
43048;SDS011;28673;44.412;11.918;2023-04-25T02:56:04;5.25;;;2.30;;
43048;SDS011;28673;44.412;11.918;2023-04-25T02:58:30;5.45;;;2.83;;
43048;SDS011;28673;44.412;11.918;2023-04-25T03:00:56;3.90;;;1.80;;
43048;SDS011;28673;44.412;11.918;2023-04-25T03:03:21;5.05;;;2.50;;
43048;SDS011;28673;44.412;11.918;2023-04-25T03:05:48;4.03;;;2.13;;
43048;SDS011;28673;44.412;11.918;2023-04-25T03:08:18;6.80;;;2.05;;
43048;SDS011;28673;44.412;11.918;2023-04-25T03:10:44;2.17;;;1.98;;
43048;SDS011;28673;44.412;11.918;2023-04-25T03:13:12;4.88;;;3.30;;
43048;SDS011;28673;44.412;11.918;2023-04-25T03:15:40;3.85;;;2.60;;
43048;SDS011;28673;44.412;11.918;2023-04-25T03:18:06;7.45;;;2.53;;
43048;SDS011;28673;44.412;11.918;2023-04-25T03:20:31;6.03;;;2.40;;
43048;SDS011;28673;44.412;11.918;2023-04-25T03:22:57;3.92;;;2.45;;
43048;SDS011;28673;44.412;11.918;2023-04-25T03:25:23;3.72;;;2.17;;
43048;SDS011;28673;44.412;11.918;2023-04-25T03:27:49;4.13;;;2.08;;
43048;SDS011;28673;44.412;11.918;2023-04-25T03:30:15;3.35;;;2.47;;
43048;SDS011;28673;44.412;11.918;2023-04-25T03:32:42;3.72;;;2.50;;
43048;SDS011;28673;44.412;11.918;2023-04-25T03:35:08;2.65;;;2.40;;
43048;SDS011;28673;44.412;11.918;2023-04-25T03:37:35;4.30;;;3.33;;
43048;SDS011;28673;44.412;11.918;2023-04-25T03:40:00;3.50;;;2.50;;
43048;SDS011;28673;44.412;11.918;2023-04-25T03:42:46;5.10;;;2.70;;
43048;SDS011;28673;44.412;11.918;2023-04-25T03:45:12;4.82;;;2.78;;
43048;SDS011;28673;44.412;11.918;2023-04-25T03:47:38;4.25;;;2.67;;
43048;SDS011;28673;44.412;11.918;2023-04-25T03:50:03;4.47;;;2.70;;
43048;SDS011;28673;44.412;11.918;2023-04-25T03:52:30;3.72;;;2.80;;
43048;SDS011;28673;44.412;11.918;2023-04-25T03:54:57;3.25;;;2.50;;
43048;SDS011;28673;44.412;11.918;2023-04-25T03:57:24;3.38;;;2.80;;
43048;SDS011;28673;44.412;11.918;2023-04-25T03:59:50;3.45;;;2.60;;
43048;SDS011;28673;44.412;11.918;2023-04-25T04:02:15;4.07;;;2.40;;
43048;SDS011;28673;44.412;11.918;2023-04-25T04:04:42;3.92;;;2.50;;
43048;SDS011;28673;44.412;11.918;2023-04-25T04:07:09;3.25;;;2.65;;
43048;SDS011;28673;44.412;11.918;2023-04-25T04:09:39;3.67;;;2.63;;
43048;SDS011;28673;44.412;11.918;2023-04-25T04:12:09;6.68;;;2.63;;
43048;SDS011;28673;44.412;11.918;2023-04-25T04:14:37;5.57;;;2.95;;
43048;SDS011;28673;44.412;11.918;2023-04-25T04:17:03;4.10;;;2.75;;
43048;SDS011;28673;44.412;11.918;2023-04-25T04:19:29;3.53;;;2.47;;
43048;SDS011;28673;44.412;11.918;2023-04-25T04:22:17;3.88;;;2.70;;
43048;SDS011;28673;44.412;11.918;2023-04-25T04:24:44;3.78;;;2.58;;
43048;SDS011;28673;44.412;11.918;2023-04-25T04:27:13;6.45;;;2.72;;
43048;SDS011;28673;44.412;11.918;2023-04-25T04:29:45;5.40;;;2.20;;
43048;SDS011;28673;44.412;11.918;2023-04-25T04:32:22;4.90;;;2.40;;
43048;SDS011;28673;44.412;11.918;2023-04-25T04:34:49;5.95;;;2.97;;
43048;SDS011;28673;44.412;11.918;2023-04-25T04:37:17;6.03;;;2.30;;
43048;SDS011;28673;44.412;11.918;2023-04-25T04:39:43;6.13;;;2.63;;
43048;SDS011;28673;44.412;11.918;2023-04-25T04:42:43;7.70;;;2.63;;
43048;SDS011;28673;44.412;11.918;2023-04-25T04:45:36;2.50;;;2.17;;
43048;SDS011;28673;44.412;11.918;2023-04-25T04:48:05;6.57;;;2.58;;
43048;SDS011;28673;44.412;11.918;2023-04-25T04:50:31;4.78;;;2.20;;
43048;SDS011;28673;44.412;11.918;2023-04-25T04:53:19;3.30;;;2.15;;
43048;SDS011;28673;44.412;11.918;2023-04-25T04:56:03;4.18;;;2.03;;
43048;SDS011;28673;44.412;11.918;2023-04-25T05:01:33;27.38;;;3.40;;
43048;SDS011;28673;44.412;11.918;2023-04-25T05:04:17;8.98;;;2.63;;
43048;SDS011;28673;44.412;11.918;2023-04-25T05:06:51;5.07;;;2.58;;
43048;SDS011;28673;44.412;11.918;2023-04-25T05:09:40;6.78;;;2.30;;
43048;SDS011;28673;44.412;11.918;2023-04-25T05:12:34;5.35;;;1.92;;
43048;SDS011;28673;44.412;11.918;2023-04-25T05:15:38;3.47;;;2.83;;
43048;SDS011;28673;44.412;11.918;2023-04-25T05:18:39;6.82;;;2.30;;
43048;SDS011;28673;44.412;11.918;2023-04-25T05:21:26;10.40;;;2.40;;
43048;SDS011;28673;44.412;11.918;2023-04-25T05:24:15;7.55;;;2.38;;
43048;SDS011;28673;44.412;11.918;2023-04-25T05:27:17;5.55;;;2.05;;
43048;SDS011;28673;44.412;11.918;2023-04-25T05:29:56;4.03;;;2.17;;
43048;SDS011;28673;44.412;11.918;2023-04-25T05:32:42;5.93;;;3.17;;
43048;SDS011;28673;44.412;11.918;2023-04-25T05:35:08;8.85;;;2.58;;
43048;SDS011;28673;44.412;11.918;2023-04-25T05:37:40;3.42;;;2.20;;
43048;SDS011;28673;44.412;11.918;2023-04-25T05:40:09;6.93;;;1.80;;
43048;SDS011;28673;44.412;11.918;2023-04-25T05:42:54;3.03;;;1.85;;
43048;SDS011;28673;44.412;11.918;2023-04-25T05:45:39;9.23;;;2.35;;
43048;SDS011;28673;44.412;11.918;2023-04-25T05:48:28;6.05;;;2.05;;
43048;SDS011;28673;44.412;11.918;2023-04-25T05:51:24;7.30;;;2.35;;
43048;SDS011;28673;44.412;11.918;2023-04-25T05:54:30;2.63;;;1.83;;
43048;SDS011;28673;44.412;11.918;2023-04-25T05:56:56;10.13;;;1.92;;
43048;SDS011;28673;44.412;11.918;2023-04-25T05:59:22;11.50;;;2.60;;
43048;SDS011;28673;44.412;11.918;2023-04-25T06:01:49;4.85;;;1.95;;
43048;SDS011;28673;44.412;11.918;2023-04-25T06:04:15;3.92;;;2.28;;
43048;SDS011;28673;44.412;11.918;2023-04-25T06:06:41;5.82;;;2.20;;
43048;SDS011;28673;44.412;11.918;2023-04-25T06:09:07;4.82;;;1.85;;
43048;SDS011;28673;44.412;11.918;2023-04-25T06:11:32;9.05;;;2.90;;
43048;SDS011;28673;44.412;11.918;2023-04-25T06:13:58;2.97;;;1.98;;
43048;SDS011;28673;44.412;11.918;2023-04-25T06:16:25;10.50;;;2.13;;
43048;SDS011;28673;44.412;11.918;2023-04-25T06:18:51;7.53;;;2.13;;
43048;SDS011;28673;44.412;11.918;2023-04-25T06:21:17;6.85;;;2.05;;
43048;SDS011;28673;44.412;11.918;2023-04-25T06:23:43;6.90;;;3.50;;
43048;SDS011;28673;44.412;11.918;2023-04-25T06:26:11;7.75;;;4.05;;
43048;SDS011;28673;44.412;11.918;2023-04-25T06:28:40;6.60;;;3.22;;
43048;SDS011;28673;44.412;11.918;2023-04-25T06:31:07;9.40;;;3.47;;
43048;SDS011;28673;44.412;11.918;2023-04-25T06:33:33;5.50;;;3.33;;
43048;SDS011;28673;44.412;11.918;2023-04-25T06:35:59;7.70;;;2.72;;
43048;SDS011;28673;44.412;11.918;2023-04-25T06:38:26;7.28;;;3.47;;
43048;SDS011;28673;44.412;11.918;2023-04-25T06:40:55;6.78;;;2.95;;
43048;SDS011;28673;44.412;11.918;2023-04-25T06:43:20;7.60;;;3.10;;
43048;SDS011;28673;44.412;11.918;2023-04-25T06:45:49;7.03;;;3.15;;
43048;SDS011;28673;44.412;11.918;2023-04-25T06:48:15;5.90;;;3.20;;
43048;SDS011;28673;44.412;11.918;2023-04-25T06:50:41;8.35;;;3.03;;
43048;SDS011;28673;44.412;11.918;2023-04-25T06:53:07;9.82;;;3.38;;
43048;SDS011;28673;44.412;11.918;2023-04-25T06:55:35;7.65;;;3.10;;
43048;SDS011;28673;44.412;11.918;2023-04-25T06:58:12;9.02;;;3.22;;
43048;SDS011;28673;44.412;11.918;2023-04-25T07:01:01;10.25;;;3.42;;
43048;SDS011;28673;44.412;11.918;2023-04-25T07:03:27;13.80;;;3.53;;
43048;SDS011;28673;44.412;11.918;2023-04-25T07:06:02;5.78;;;2.63;;
43048;SDS011;28673;44.412;11.918;2023-04-25T07:08:29;7.70;;;3.33;;
43048;SDS011;28673;44.412;11.918;2023-04-25T07:10:57;9.40;;;3.15;;
43048;SDS011;28673;44.412;11.918;2023-04-25T07:13:23;10.55;;;2.92;;
43048;SDS011;28673;44.412;11.918;2023-04-25T07:15:49;6.45;;;2.60;;
43048;SDS011;28673;44.412;11.918;2023-04-25T07:18:17;6.82;;;2.50;;
43048;SDS011;28673;44.412;11.918;2023-04-25T07:20:43;11.23;;;2.53;;
43048;SDS011;28673;44.412;11.918;2023-04-25T07:23:11;6.13;;;2.20;;
43048;SDS011;28673;44.412;11.918;2023-04-25T07:25:37;4.82;;;2.75;;
43048;SDS011;28673;44.412;11.918;2023-04-25T07:28:03;5.00;;;2.20;;
43048;SDS011;28673;44.412;11.918;2023-04-25T07:30:30;6.95;;;3.17;;
43048;SDS011;28673;44.412;11.918;2023-04-25T07:33:02;8.00;;;3.78;;
43048;SDS011;28673;44.412;11.918;2023-04-25T07:35:28;6.00;;;2.58;;
43048;SDS011;28673;44.412;11.918;2023-04-25T07:37:54;8.60;;;2.63;;
43048;SDS011;28673;44.412;11.918;2023-04-25T07:40:20;4.97;;;2.40;;
43048;SDS011;28673;44.412;11.918;2023-04-25T07:42:51;9.95;;;6.40;;
43048;SDS011;28673;44.412;11.918;2023-04-25T07:45:23;20.40;;;4.20;;
43048;SDS011;28673;44.412;11.918;2023-04-25T07:47:50;8.13;;;2.80;;
43048;SDS011;28673;44.412;11.918;2023-04-25T07:50:16;4.70;;;2.25;;
43048;SDS011;28673;44.412;11.918;2023-04-25T07:52:43;8.20;;;3.05;;
43048;SDS011;28673;44.412;11.918;2023-04-25T07:55:22;16.75;;;3.72;;
43048;SDS011;28673;44.412;11.918;2023-04-25T07:58:17;7.80;;;2.83;;
43048;SDS011;28673;44.412;11.918;2023-04-25T08:00:48;8.05;;;2.53;;
43048;SDS011;28673;44.412;11.918;2023-04-25T08:03:44;10.55;;;2.97;;
43048;SDS011;28673;44.412;11.918;2023-04-25T08:06:17;6.72;;;3.60;;
43048;SDS011;28673;44.412;11.918;2023-04-25T08:08:55;7.80;;;3.85;;
43048;SDS011;28673;44.412;11.918;2023-04-25T08:11:25;7.70;;;4.72;;
43048;SDS011;28673;44.412;11.918;2023-04-25T08:13:51;10.15;;;5.68;;
43048;SDS011;28673;44.412;11.918;2023-04-25T08:16:17;14.57;;;5.93;;
43048;SDS011;28673;44.412;11.918;2023-04-25T08:18:43;15.90;;;6.53;;
43048;SDS011;28673;44.412;11.918;2023-04-25T08:21:09;10.88;;;6.53;;
43048;SDS011;28673;44.412;11.918;2023-04-25T08:23:37;8.23;;;5.93;;
43048;SDS011;28673;44.412;11.918;2023-04-25T08:26:10;7.28;;;5.32;;
43048;SDS011;28673;44.412;11.918;2023-04-25T08:28:37;7.70;;;5.35;;
43048;SDS011;28673;44.412;11.918;2023-04-25T08:31:03;8.30;;;5.82;;
43048;SDS011;28673;44.412;11.918;2023-04-25T08:33:38;6.97;;;4.65;;
43048;SDS011;28673;44.412;11.918;2023-04-25T08:36:26;12.02;;;5.22;;
43048;SDS011;28673;44.412;11.918;2023-04-25T08:38:53;11.25;;;5.20;;
43048;SDS011;28673;44.412;11.918;2023-04-25T08:41:20;7.13;;;4.90;;
43048;SDS011;28673;44.412;11.918;2023-04-25T08:43:48;8.85;;;4.70;;
43048;SDS011;28673;44.412;11.918;2023-04-25T08:46:18;7.85;;;5.32;;
43048;SDS011;28673;44.412;11.918;2023-04-25T08:49:11;5.80;;;4.85;;
43048;SDS011;28673;44.412;11.918;2023-04-25T08:51:42;8.75;;;5.10;;
43048;SDS011;28673;44.412;11.918;2023-04-25T08:54:13;9.82;;;5.05;;
43048;SDS011;28673;44.412;11.918;2023-04-25T08:56:43;6.63;;;5.35;;
43048;SDS011;28673;44.412;11.918;2023-04-25T08:59:12;8.43;;;6.15;;
43048;SDS011;28673;44.412;11.918;2023-04-25T09:01:39;11.00;;;6.20;;
43048;SDS011;28673;44.412;11.918;2023-04-25T09:04:06;9.63;;;7.40;;
43048;SDS011;28673;44.412;11.918;2023-04-25T09:06:33;9.68;;;6.25;;
43048;SDS011;28673;44.412;11.918;2023-04-25T09:09:05;8.60;;;6.32;;
43048;SDS011;28673;44.412;11.918;2023-04-25T09:11:33;8.80;;;5.85;;
43048;SDS011;28673;44.412;11.918;2023-04-25T09:14:24;9.05;;;5.53;;
43048;SDS011;28673;44.412;11.918;2023-04-25T09:17:19;14.13;;;5.28;;
43048;SDS011;28673;44.412;11.918;2023-04-25T09:19:51;6.18;;;3.47;;
43048;SDS011;28673;44.412;11.918;2023-04-25T09:22:25;6.38;;;2.67;;
43048;SDS011;28673;44.412;11.918;2023-04-25T09:24:51;5.50;;;1.50;;
43048;SDS011;28673;44.412;11.918;2023-04-25T09:27:19;2.35;;;1.02;;
43048;SDS011;28673;44.412;11.918;2023-04-25T09:29:56;2.10;;;1.13;;
43048;SDS011;28673;44.412;11.918;2023-04-25T09:32:24;6.82;;;1.17;;
43048;SDS011;28673;44.412;11.918;2023-04-25T09:34:56;11.18;;;1.40;;
43048;SDS011;28673;44.412;11.918;2023-04-25T09:37:25;6.53;;;2.30;;
43048;SDS011;28673;44.412;11.918;2023-04-25T09:40:33;11.25;;;1.45;;
43048;SDS011;28673;44.412;11.918;2023-04-25T09:43:19;2.10;;;0.75;;
43048;SDS011;28673;44.412;11.918;2023-04-25T09:45:48;10.38;;;0.75;;
43048;SDS011;28673;44.412;11.918;2023-04-25T09:48:20;5.95;;;0.85;;
43048;SDS011;28673;44.412;11.918;2023-04-25T09:51:09;3.20;;;0.50;;
43048;SDS011;28673;44.412;11.918;2023-04-25T09:53:41;1.10;;;0.63;;
43048;SDS011;28673;44.412;11.918;2023-04-25T09:56:27;0.65;;;0.30;;
43048;SDS011;28673;44.412;11.918;2023-04-25T09:59:03;2.53;;;0.47;;
43048;SDS011;28673;44.412;11.918;2023-04-25T10:01:33;4.10;;;0.52;;
43048;SDS011;28673;44.412;11.918;2023-04-25T10:04:14;0.70;;;0.60;;
43048;SDS011;28673;44.412;11.918;2023-04-25T10:06:50;0.98;;;0.35;;
43048;SDS011;28673;44.412;11.918;2023-04-25T10:09:18;0.35;;;0.30;;
43048;SDS011;28673;44.412;11.918;2023-04-25T10:11:46;0.85;;;0.43;;
43048;SDS011;28673;44.412;11.918;2023-04-25T10:14:16;0.30;;;0.20;;
43048;SDS011;28673;44.412;11.918;2023-04-25T10:16:42;0.47;;;0.20;;
43048;SDS011;28673;44.412;11.918;2023-04-25T10:19:09;1.25;;;0.57;;
43048;SDS011;28673;44.412;11.918;2023-04-25T10:21:36;0.28;;;0.28;;
43048;SDS011;28673;44.412;11.918;2023-04-25T10:24:11;3.28;;;0.60;;
43048;SDS011;28673;44.412;11.918;2023-04-25T10:26:37;0.50;;;0.40;;
43048;SDS011;28673;44.412;11.918;2023-04-25T10:29:03;0.32;;;0.30;;
43048;SDS011;28673;44.412;11.918;2023-04-25T10:31:32;1.40;;;0.38;;
43048;SDS011;28673;44.412;11.918;2023-04-25T10:34:01;1.55;;;0.82;;
43048;SDS011;28673;44.412;11.918;2023-04-25T10:36:27;0.50;;;0.40;;
43048;SDS011;28673;44.412;11.918;2023-04-25T10:39:02;1.08;;;0.50;;
43048;SDS011;28673;44.412;11.918;2023-04-25T10:41:53;2.47;;;0.80;;
43048;SDS011;28673;44.412;11.918;2023-04-25T10:44:28;5.03;;;0.68;;
43048;SDS011;28673;44.412;11.918;2023-04-25T10:46:55;5.63;;;1.42;;
43048;SDS011;28673;44.412;11.918;2023-04-25T10:49:33;1.35;;;0.90;;
43048;SDS011;28673;44.412;11.918;2023-04-25T10:52:26;0.63;;;0.60;;
43048;SDS011;28673;44.412;11.918;2023-04-25T10:54:55;1.02;;;0.60;;
43048;SDS011;28673;44.412;11.918;2023-04-25T11:00:00;0.50;;;0.50;;
43048;SDS011;28673;44.412;11.918;2023-04-25T11:02:30;0.50;;;0.40;;
43048;SDS011;28673;44.412;11.918;2023-04-25T11:04:57;0.25;;;0.25;;
43048;SDS011;28673;44.412;11.918;2023-04-25T11:07:37;1.45;;;0.22;;
43048;SDS011;28673;44.412;11.918;2023-04-25T11:10:09;0.22;;;0.20;;
43048;SDS011;28673;44.412;11.918;2023-04-25T11:12:35;1.23;;;0.50;;
43048;SDS011;28673;44.412;11.918;2023-04-25T11:15:01;0.47;;;0.30;;
43048;SDS011;28673;44.412;11.918;2023-04-25T11:17:31;5.03;;;0.50;;
43048;SDS011;28673;44.412;11.918;2023-04-25T11:19:58;0.40;;;0.30;;
43048;SDS011;28673;44.412;11.918;2023-04-25T11:22:24;3.45;;;0.32;;
43048;SDS011;28673;44.412;11.918;2023-04-25T11:24:52;0.65;;;0.65;;
43048;SDS011;28673;44.412;11.918;2023-04-25T11:27:19;2.83;;;0.45;;
43048;SDS011;28673;44.412;11.918;2023-04-25T11:29:46;1.95;;;0.50;;
43048;SDS011;28673;44.412;11.918;2023-04-25T11:32:14;1.55;;;0.10;;
43048;SDS011;28673;44.412;11.918;2023-04-25T11:34:42;0.30;;;0.30;;
43048;SDS011;28673;44.412;11.918;2023-04-25T11:37:09;1.42;;;1.23;;
43048;SDS011;28673;44.412;11.918;2023-04-25T11:39:37;4.82;;;0.70;;
43048;SDS011;28673;44.412;11.918;2023-04-25T11:42:04;2.95;;;0.40;;
43048;SDS011;28673;44.412;11.918;2023-04-25T11:44:31;0.82;;;0.30;;
43048;SDS011;28673;44.412;11.918;2023-04-25T11:46:57;0.80;;;0.30;;
43048;SDS011;28673;44.412;11.918;2023-04-25T11:49:22;1.42;;;0.60;;
43048;SDS011;28673;44.412;11.918;2023-04-25T11:51:50;0.65;;;0.32;;
43048;SDS011;28673;44.412;11.918;2023-04-25T11:54:16;4.65;;;1.65;;
43048;SDS011;28673;44.412;11.918;2023-04-25T11:56:42;5.00;;;0.52;;
43048;SDS011;28673;44.412;11.918;2023-04-25T11:59:09;4.80;;;0.93;;
43048;SDS011;28673;44.412;11.918;2023-04-25T12:01:36;1.60;;;0.50;;
43048;SDS011;28673;44.412;11.918;2023-04-25T12:04:13;2.33;;;0.70;;
43048;SDS011;28673;44.412;11.918;2023-04-25T12:06:40;3.10;;;0.90;;
43048;SDS011;28673;44.412;11.918;2023-04-25T12:09:08;10.93;;;1.10;;
43048;SDS011;28673;44.412;11.918;2023-04-25T12:11:48;3.97;;;1.10;;
43048;SDS011;28673;44.412;11.918;2023-04-25T12:14:22;8.02;;;1.88;;
43048;SDS011;28673;44.412;11.918;2023-04-25T12:16:49;4.28;;;0.95;;
43048;SDS011;28673;44.412;11.918;2023-04-25T12:19:19;4.45;;;0.93;;
43048;SDS011;28673;44.412;11.918;2023-04-25T12:21:46;5.45;;;1.00;;
43048;SDS011;28673;44.412;11.918;2023-04-25T12:24:33;3.58;;;0.50;;
43048;SDS011;28673;44.412;11.918;2023-04-25T12:27:00;2.15;;;0.50;;
43048;SDS011;28673;44.412;11.918;2023-04-25T12:29:32;4.78;;;0.95;;
43048;SDS011;28673;44.412;11.918;2023-04-25T12:31:59;5.72;;;1.10;;
43048;SDS011;28673;44.412;11.918;2023-04-25T12:34:27;9.23;;;0.93;;
43048;SDS011;28673;44.412;11.918;2023-04-25T12:36:53;3.92;;;0.45;;
43048;SDS011;28673;44.412;11.918;2023-04-25T12:39:21;3.45;;;0.73;;
43048;SDS011;28673;44.412;11.918;2023-04-25T12:41:48;3.95;;;0.80;;
43048;SDS011;28673;44.412;11.918;2023-04-25T12:44:15;4.72;;;0.93;;
43048;SDS011;28673;44.412;11.918;2023-04-25T12:46:42;3.72;;;0.77;;
43048;SDS011;28673;44.412;11.918;2023-04-25T12:49:08;1.65;;;0.47;;
43048;SDS011;28673;44.412;11.918;2023-04-25T12:51:34;3.53;;;1.02;;
43048;SDS011;28673;44.412;11.918;2023-04-25T12:54:01;5.00;;;1.58;;
43048;SDS011;28673;44.412;11.918;2023-04-25T12:56:29;2.08;;;0.38;;
43048;SDS011;28673;44.412;11.918;2023-04-25T12:59:05;2.50;;;0.50;;
43048;SDS011;28673;44.412;11.918;2023-04-25T13:01:31;2.55;;;0.93;;
43048;SDS011;28673;44.412;11.918;2023-04-25T13:03:58;4.30;;;0.90;;
43048;SDS011;28673;44.412;11.918;2023-04-25T13:06:23;3.47;;;0.60;;
43048;SDS011;28673;44.412;11.918;2023-04-25T13:08:49;5.60;;;2.58;;
43048;SDS011;28673;44.412;11.918;2023-04-25T13:11:15;8.90;;;1.35;;
43048;SDS011;28673;44.412;11.918;2023-04-25T13:13:41;1.90;;;0.47;;
43048;SDS011;28673;44.412;11.918;2023-04-25T13:16:09;4.65;;;1.23;;
43048;SDS011;28673;44.412;11.918;2023-04-25T13:18:35;1.65;;;0.50;;
43048;SDS011;28673;44.412;11.918;2023-04-25T13:21:01;0.95;;;0.30;;
43048;SDS011;28673;44.412;11.918;2023-04-25T13:23:28;8.10;;;0.82;;
43048;SDS011;28673;44.412;11.918;2023-04-25T13:25:55;2.33;;;0.70;;
43048;SDS011;28673;44.412;11.918;2023-04-25T13:28:23;3.10;;;1.05;;
43048;SDS011;28673;44.412;11.918;2023-04-25T13:30:50;4.80;;;0.73;;
43048;SDS011;28673;44.412;11.918;2023-04-25T13:33:16;1.55;;;0.50;;
43048;SDS011;28673;44.412;11.918;2023-04-25T13:35:43;6.38;;;1.02;;
43048;SDS011;28673;44.412;11.918;2023-04-25T13:38:18;8.00;;;0.77;;
43048;SDS011;28673;44.412;11.918;2023-04-25T13:40:46;5.60;;;0.98;;
43048;SDS011;28673;44.412;11.918;2023-04-25T13:43:12;2.10;;;0.63;;
43048;SDS011;28673;44.412;11.918;2023-04-25T13:45:38;7.75;;;0.90;;
43048;SDS011;28673;44.412;11.918;2023-04-25T13:48:04;2.88;;;0.73;;
43048;SDS011;28673;44.412;11.918;2023-04-25T13:50:30;6.95;;;1.23;;
43048;SDS011;28673;44.412;11.918;2023-04-25T13:52:57;7.38;;;0.85;;
43048;SDS011;28673;44.412;11.918;2023-04-25T13:55:22;3.42;;;0.85;;
43048;SDS011;28673;44.412;11.918;2023-04-25T13:57:48;1.67;;;0.70;;
43048;SDS011;28673;44.412;11.918;2023-04-25T14:00:14;11.30;;;2.38;;
43048;SDS011;28673;44.412;11.918;2023-04-25T14:02:40;6.18;;;1.00;;
43048;SDS011;28673;44.412;11.918;2023-04-25T14:05:06;5.82;;;0.75;;
43048;SDS011;28673;44.412;11.918;2023-04-25T14:07:33;3.90;;;0.55;;
43048;SDS011;28673;44.412;11.918;2023-04-25T14:10:00;2.47;;;0.70;;
43048;SDS011;28673;44.412;11.918;2023-04-25T14:12:26;2.30;;;0.82;;
43048;SDS011;28673;44.412;11.918;2023-04-25T14:14:52;2.08;;;0.63;;
43048;SDS011;28673;44.412;11.918;2023-04-25T14:17:18;7.03;;;0.77;;
43048;SDS011;28673;44.412;11.918;2023-04-25T14:19:44;2.13;;;0.63;;
43048;SDS011;28673;44.412;11.918;2023-04-25T14:22:13;4.60;;;0.75;;
43048;SDS011;28673;44.412;11.918;2023-04-25T14:24:40;5.60;;;0.70;;
43048;SDS011;28673;44.412;11.918;2023-04-25T14:27:07;7.85;;;1.15;;
43048;SDS011;28673;44.412;11.918;2023-04-25T14:29:33;1.63;;;0.80;;
43048;SDS011;28673;44.412;11.918;2023-04-25T14:31:59;4.45;;;0.88;;
43048;SDS011;28673;44.412;11.918;2023-04-25T14:34:25;4.88;;;0.77;;
43048;SDS011;28673;44.412;11.918;2023-04-25T14:36:51;4.60;;;0.57;;
43048;SDS011;28673;44.412;11.918;2023-04-25T14:39:17;11.30;;;0.88;;
43048;SDS011;28673;44.412;11.918;2023-04-25T14:41:44;1.80;;;0.63;;
43048;SDS011;28673;44.412;11.918;2023-04-25T14:44:10;2.28;;;0.47;;
43048;SDS011;28673;44.412;11.918;2023-04-25T14:46:36;5.85;;;0.50;;
43048;SDS011;28673;44.412;11.918;2023-04-25T14:49:02;4.30;;;0.77;;
43048;SDS011;28673;44.412;11.918;2023-04-25T14:51:28;5.00;;;0.60;;
43048;SDS011;28673;44.412;11.918;2023-04-25T14:53:54;1.40;;;0.60;;
43048;SDS011;28673;44.412;11.918;2023-04-25T14:56:20;2.97;;;0.45;;